sensor_id;sensor_type;location;lat;lon;timestamp;temperature;humidity
33247;DHT22;19606;50.108;19.804;2023-02-12T00:01:22;3.10;99.90
33247;DHT22;19606;50.108;19.804;2023-02-12T00:03:48;3.60;99.90
33247;DHT22;19606;50.108;19.804;2023-02-12T00:06:14;3.60;99.90
33247;DHT22;19606;50.108;19.804;2023-02-12T00:08:40;3.00;99.90
33247;DHT22;19606;50.108;19.804;2023-02-12T00:11:12;3.30;99.90
33247;DHT22;19606;50.108;19.804;2023-02-12T00:13:38;3.10;99.90
33247;DHT22;19606;50.108;19.804;2023-02-12T00:16:10;3.30;99.90
33247;DHT22;19606;50.108;19.804;2023-02-12T00:18:36;3.80;99.90
33247;DHT22;19606;50.108;19.804;2023-02-12T00:21:02;3.40;99.90
33247;DHT22;19606;50.108;19.804;2023-02-12T00:23:28;3.20;99.90
33247;DHT22;19606;50.108;19.804;2023-02-12T00:25:54;3.50;99.90
33247;DHT22;19606;50.108;19.804;2023-02-12T00:28:19;3.30;99.90
33247;DHT22;19606;50.108;19.804;2023-02-12T00:30:45;3.20;99.90
33247;DHT22;19606;50.108;19.804;2023-02-12T00:33:11;3.50;99.90
33247;DHT22;19606;50.108;19.804;2023-02-12T00:35:36;3.40;99.90
33247;DHT22;19606;50.108;19.804;2023-02-12T00:38:02;3.50;99.90
33247;DHT22;19606;50.108;19.804;2023-02-12T00:40:28;3.50;99.90
33247;DHT22;19606;50.108;19.804;2023-02-12T00:42:56;3.50;99.90
33247;DHT22;19606;50.108;19.804;2023-02-12T00:45:22;3.40;99.90
33247;DHT22;19606;50.108;19.804;2023-02-12T00:47:47;3.50;99.90
33247;DHT22;19606;50.108;19.804;2023-02-12T00:50:13;3.50;99.90
33247;DHT22;19606;50.108;19.804;2023-02-12T00:52:39;3.60;99.90
33247;DHT22;19606;50.108;19.804;2023-02-12T00:55:05;3.80;99.90
33247;DHT22;19606;50.108;19.804;2023-02-12T00:57:30;3.50;99.90
33247;DHT22;19606;50.108;19.804;2023-02-12T00:59:58;3.50;99.90
33247;DHT22;19606;50.108;19.804;2023-02-12T01:02:23;3.90;99.90
33247;DHT22;19606;50.108;19.804;2023-02-12T01:04:49;3.80;99.90
33247;DHT22;19606;50.108;19.804;2023-02-12T01:07:15;4.00;99.90
33247;DHT22;19606;50.108;19.804;2023-02-12T01:09:40;4.00;99.90
33247;DHT22;19606;50.108;19.804;2023-02-12T01:12:06;4.20;99.90
33247;DHT22;19606;50.108;19.804;2023-02-12T01:14:32;3.60;99.90
33247;DHT22;19606;50.108;19.804;2023-02-12T01:16:58;3.90;99.90
33247;DHT22;19606;50.108;19.804;2023-02-12T01:19:24;3.80;99.90
33247;DHT22;19606;50.108;19.804;2023-02-12T01:21:49;3.70;99.90
33247;DHT22;19606;50.108;19.804;2023-02-12T01:24:15;4.30;99.90
33247;DHT22;19606;50.108;19.804;2023-02-12T01:26:41;3.70;99.90
33247;DHT22;19606;50.108;19.804;2023-02-12T01:29:06;4.30;99.90
33247;DHT22;19606;50.108;19.804;2023-02-12T01:31:35;3.70;99.90
33247;DHT22;19606;50.108;19.804;2023-02-12T01:34:03;3.80;99.90
33247;DHT22;19606;50.108;19.804;2023-02-12T01:36:30;4.10;99.90
33247;DHT22;19606;50.108;19.804;2023-02-12T01:38:56;3.70;99.90
33247;DHT22;19606;50.108;19.804;2023-02-12T01:41:28;3.90;99.90
33247;DHT22;19606;50.108;19.804;2023-02-12T01:44:30;3.70;99.90
33247;DHT22;19606;50.108;19.804;2023-02-12T01:46:59;3.80;99.90
33247;DHT22;19606;50.108;19.804;2023-02-12T01:49:39;3.80;99.90
33247;DHT22;19606;50.108;19.804;2023-02-12T01:52:29;3.90;99.90
33247;DHT22;19606;50.108;19.804;2023-02-12T01:55:00;4.20;99.90
33247;DHT22;19606;50.108;19.804;2023-02-12T01:57:28;4.10;99.90
33247;DHT22;19606;50.108;19.804;2023-02-12T01:59:57;4.10;99.90
33247;DHT22;19606;50.108;19.804;2023-02-12T02:02:24;4.30;99.90
33247;DHT22;19606;50.108;19.804;2023-02-12T02:04:55;4.00;99.90
33247;DHT22;19606;50.108;19.804;2023-02-12T02:07:22;3.80;99.90
33247;DHT22;19606;50.108;19.804;2023-02-12T02:09:48;4.00;99.90
33247;DHT22;19606;50.108;19.804;2023-02-12T02:12:17;4.10;99.90
33247;DHT22;19606;50.108;19.804;2023-02-12T02:15:02;4.20;99.90
33247;DHT22;19606;50.108;19.804;2023-02-12T02:17:55;3.70;99.90
33247;DHT22;19606;50.108;19.804;2023-02-12T02:20:38;3.70;99.90
33247;DHT22;19606;50.108;19.804;2023-02-12T02:25:55;3.70;99.90
33247;DHT22;19606;50.108;19.804;2023-02-12T02:34:07;3.80;99.90
33247;DHT22;19606;50.108;19.804;2023-02-12T02:36:40;3.80;99.90
33247;DHT22;19606;50.108;19.804;2023-02-12T02:44:30;3.90;99.90
33247;DHT22;19606;50.108;19.804;2023-02-12T02:46:57;3.60;99.90
33247;DHT22;19606;50.108;19.804;2023-02-12T02:49:32;3.70;99.90
33247;DHT22;19606;50.108;19.804;2023-02-12T02:54:34;3.70;99.90
33247;DHT22;19606;50.108;19.804;2023-02-12T02:57:35;4.00;99.90
33247;DHT22;19606;50.108;19.804;2023-02-12T03:00:30;3.60;99.90
33247;DHT22;19606;50.108;19.804;2023-02-12T03:02:57;3.60;99.90
33247;DHT22;19606;50.108;19.804;2023-02-12T03:05:34;3.80;99.90
33247;DHT22;19606;50.108;19.804;2023-02-12T03:08:13;3.60;99.90
33247;DHT22;19606;50.108;19.804;2023-02-12T03:10:45;3.60;99.90
33247;DHT22;19606;50.108;19.804;2023-02-12T03:13:20;4.40;99.90
33247;DHT22;19606;50.108;19.804;2023-02-12T03:16:13;3.50;99.90
33247;DHT22;19606;50.108;19.804;2023-02-12T03:19:02;3.60;99.90
33247;DHT22;19606;50.108;19.804;2023-02-12T03:21:34;3.50;99.90
33247;DHT22;19606;50.108;19.804;2023-02-12T03:24:10;4.50;99.90
33247;DHT22;19606;50.108;19.804;2023-02-12T03:26:42;3.40;99.90
33247;DHT22;19606;50.108;19.804;2023-02-12T03:29:09;4.80;99.90
33247;DHT22;19606;50.108;19.804;2023-02-12T03:37:26;3.40;99.90
33247;DHT22;19606;50.108;19.804;2023-02-12T03:40:22;3.40;99.90
33247;DHT22;19606;50.108;19.804;2023-02-12T03:42:54;3.40;99.90
33247;DHT22;19606;50.108;19.804;2023-02-12T03:53:25;3.40;99.90
33247;DHT22;19606;50.108;19.804;2023-02-12T03:55:55;3.50;99.90
33247;DHT22;19606;50.108;19.804;2023-02-12T03:58:23;3.70;99.90
33247;DHT22;19606;50.108;19.804;2023-02-12T04:00:52;3.90;99.90
33247;DHT22;19606;50.108;19.804;2023-02-12T04:03:17;3.90;99.90
33247;DHT22;19606;50.108;19.804;2023-02-12T04:05:43;3.60;99.90
33247;DHT22;19606;50.108;19.804;2023-02-12T04:08:10;3.40;99.90
33247;DHT22;19606;50.108;19.804;2023-02-12T04:16:39;3.00;99.90
33247;DHT22;19606;50.108;19.804;2023-02-12T04:19:06;3.30;99.90
33247;DHT22;19606;50.108;19.804;2023-02-12T04:22:08;3.40;99.90
33247;DHT22;19606;50.108;19.804;2023-02-12T04:27:21;3.40;99.90
33247;DHT22;19606;50.108;19.804;2023-02-12T04:32:27;3.30;99.90
33247;DHT22;19606;50.108;19.804;2023-02-12T04:35:01;3.10;99.90
33247;DHT22;19606;50.108;19.804;2023-02-12T04:37:42;3.60;99.90
33247;DHT22;19606;50.108;19.804;2023-02-12T04:40:14;3.20;99.90
33247;DHT22;19606;50.108;19.804;2023-02-12T04:42:47;2.90;99.90
33247;DHT22;19606;50.108;19.804;2023-02-12T04:45:25;3.50;99.90
33247;DHT22;19606;50.108;19.804;2023-02-12T04:47:51;3.00;99.90
33247;DHT22;19606;50.108;19.804;2023-02-12T04:50:18;3.30;99.90
33247;DHT22;19606;50.108;19.804;2023-02-12T04:52:44;3.10;99.90
33247;DHT22;19606;50.108;19.804;2023-02-12T04:55:10;3.30;99.90
33247;DHT22;19606;50.108;19.804;2023-02-12T04:57:36;3.40;99.90
33247;DHT22;19606;50.108;19.804;2023-02-12T05:00:05;3.20;99.90
33247;DHT22;19606;50.108;19.804;2023-02-12T05:02:35;3.00;99.90
33247;DHT22;19606;50.108;19.804;2023-02-12T05:05:00;3.40;99.90
33247;DHT22;19606;50.108;19.804;2023-02-12T05:07:26;3.30;99.90
33247;DHT22;19606;50.108;19.804;2023-02-12T05:09:51;3.00;99.90
33247;DHT22;19606;50.108;19.804;2023-02-12T05:12:17;3.00;99.90
33247;DHT22;19606;50.108;19.804;2023-02-12T05:14:43;3.80;99.90
33247;DHT22;19606;50.108;19.804;2023-02-12T05:17:08;3.40;99.90
33247;DHT22;19606;50.108;19.804;2023-02-12T05:19:34;4.10;99.90
33247;DHT22;19606;50.108;19.804;2023-02-12T05:22:00;2.50;99.90
33247;DHT22;19606;50.108;19.804;2023-02-12T05:24:25;2.80;99.90
33247;DHT22;19606;50.108;19.804;2023-02-12T05:26:51;2.20;99.90
33247;DHT22;19606;50.108;19.804;2023-02-12T05:29:17;2.90;99.90
33247;DHT22;19606;50.108;19.804;2023-02-12T05:31:43;3.20;99.90
33247;DHT22;19606;50.108;19.804;2023-02-12T05:34:10;3.30;99.90
33247;DHT22;19606;50.108;19.804;2023-02-12T05:36:37;2.20;99.90
33247;DHT22;19606;50.108;19.804;2023-02-12T05:39:03;2.10;99.90
33247;DHT22;19606;50.108;19.804;2023-02-12T05:41:29;2.40;99.90
33247;DHT22;19606;50.108;19.804;2023-02-12T05:43:59;1.80;99.90
33247;DHT22;19606;50.108;19.804;2023-02-12T05:46:25;2.80;99.90
33247;DHT22;19606;50.108;19.804;2023-02-12T05:48:50;1.50;99.90
33247;DHT22;19606;50.108;19.804;2023-02-12T05:51:22;1.70;99.90
33247;DHT22;19606;50.108;19.804;2023-02-12T05:53:50;1.50;99.90
33247;DHT22;19606;50.108;19.804;2023-02-12T05:56:24;1.30;99.90
33247;DHT22;19606;50.108;19.804;2023-02-12T05:58:53;1.20;99.90
33247;DHT22;19606;50.108;19.804;2023-02-12T06:01:24;1.20;99.90
33247;DHT22;19606;50.108;19.804;2023-02-12T06:03:50;1.40;99.90
33247;DHT22;19606;50.108;19.804;2023-02-12T06:06:15;1.10;99.90
33247;DHT22;19606;50.108;19.804;2023-02-12T06:08:41;0.90;99.90
33247;DHT22;19606;50.108;19.804;2023-02-12T06:11:09;1.20;99.90
33247;DHT22;19606;50.108;19.804;2023-02-12T06:13:35;0.80;99.90
33247;DHT22;19606;50.108;19.804;2023-02-12T06:16:01;1.60;99.90
33247;DHT22;19606;50.108;19.804;2023-02-12T06:18:27;0.80;99.90
33247;DHT22;19606;50.108;19.804;2023-02-12T06:20:53;0.90;99.90
33247;DHT22;19606;50.108;19.804;2023-02-12T06:23:23;0.70;99.90
33247;DHT22;19606;50.108;19.804;2023-02-12T06:25:50;0.80;99.90
33247;DHT22;19606;50.108;19.804;2023-02-12T06:28:16;1.10;99.90
33247;DHT22;19606;50.108;19.804;2023-02-12T06:30:42;1.70;99.90
33247;DHT22;19606;50.108;19.804;2023-02-12T06:33:08;0.70;99.90
33247;DHT22;19606;50.108;19.804;2023-02-12T06:35:34;2.10;99.90
33247;DHT22;19606;50.108;19.804;2023-02-12T06:38:01;1.60;99.90
33247;DHT22;19606;50.108;19.804;2023-02-12T06:40:26;1.30;99.90
33247;DHT22;19606;50.108;19.804;2023-02-12T06:42:52;0.90;99.90
33247;DHT22;19606;50.108;19.804;2023-02-12T06:45:18;0.90;99.90
33247;DHT22;19606;50.108;19.804;2023-02-12T06:47:43;1.00;99.90
33247;DHT22;19606;50.108;19.804;2023-02-12T06:50:09;2.20;99.90
33247;DHT22;19606;50.108;19.804;2023-02-12T06:52:35;1.40;99.90
33247;DHT22;19606;50.108;19.804;2023-02-12T06:55:00;2.40;99.90
33247;DHT22;19606;50.108;19.804;2023-02-12T06:57:27;1.80;99.90
33247;DHT22;19606;50.108;19.804;2023-02-12T06:59:53;2.30;99.90
33247;DHT22;19606;50.108;19.804;2023-02-12T07:02:19;2.50;99.90
33247;DHT22;19606;50.108;19.804;2023-02-12T07:04:45;3.20;99.90
33247;DHT22;19606;50.108;19.804;2023-02-12T07:07:11;3.00;99.90
33247;DHT22;19606;50.108;19.804;2023-02-12T07:09:36;2.90;99.90
33247;DHT22;19606;50.108;19.804;2023-02-12T07:12:02;2.50;99.90
33247;DHT22;19606;50.108;19.804;2023-02-12T07:14:28;1.90;99.90
33247;DHT22;19606;50.108;19.804;2023-02-12T07:16:54;1.70;99.90
33247;DHT22;19606;50.108;19.804;2023-02-12T07:19:20;3.90;99.90
33247;DHT22;19606;50.108;19.804;2023-02-12T07:21:46;3.60;99.90
33247;DHT22;19606;50.108;19.804;2023-02-12T07:24:12;4.50;1.00
33247;DHT22;19606;50.108;19.804;2023-02-12T07:26:38;4.40;1.00
33247;DHT22;19606;50.108;19.804;2023-02-12T07:29:04;4.00;1.00
33247;DHT22;19606;50.108;19.804;2023-02-12T07:31:30;4.40;1.00
33247;DHT22;19606;50.108;19.804;2023-02-12T07:33:57;4.30;1.00
33247;DHT22;19606;50.108;19.804;2023-02-12T07:36:25;4.40;1.00
33247;DHT22;19606;50.108;19.804;2023-02-12T07:38:51;5.30;1.00
33247;DHT22;19606;50.108;19.804;2023-02-12T07:43:47;4.20;1.00
33247;DHT22;19606;50.108;19.804;2023-02-12T07:46:16;4.40;1.00
33247;DHT22;19606;50.108;19.804;2023-02-12T07:48:43;4.10;1.00
33247;DHT22;19606;50.108;19.804;2023-02-12T07:51:11;3.60;1.00
33247;DHT22;19606;50.108;19.804;2023-02-12T07:53:38;3.80;1.00
33247;DHT22;19606;50.108;19.804;2023-02-12T07:56:05;3.90;1.00
33247;DHT22;19606;50.108;19.804;2023-02-12T07:58:31;3.50;3.00
33247;DHT22;19606;50.108;19.804;2023-02-12T08:00:56;3.70;19.00
33247;DHT22;19606;50.108;19.804;2023-02-12T08:03:22;3.00;25.20
33247;DHT22;19606;50.108;19.804;2023-02-12T08:05:48;3.00;27.90
33247;DHT22;19606;50.108;19.804;2023-02-12T08:08:13;3.60;31.10
33247;DHT22;19606;50.108;19.804;2023-02-12T08:10:39;3.70;1.00
33247;DHT22;19606;50.108;19.804;2023-02-12T08:13:04;4.00;1.00
33247;DHT22;19606;50.108;19.804;2023-02-12T08:15:30;4.20;1.00
33247;DHT22;19606;50.108;19.804;2023-02-12T08:17:56;3.90;1.00
33247;DHT22;19606;50.108;19.804;2023-02-12T08:20:21;4.30;1.00
33247;DHT22;19606;50.108;19.804;2023-02-12T08:22:47;3.70;1.00
33247;DHT22;19606;50.108;19.804;2023-02-12T08:25:12;4.50;1.00
33247;DHT22;19606;50.108;19.804;2023-02-12T08:27:40;5.40;1.00
33247;DHT22;19606;50.108;19.804;2023-02-12T08:30:06;5.30;99.90
33247;DHT22;19606;50.108;19.804;2023-02-12T08:32:32;5.10;99.90
33247;DHT22;19606;50.108;19.804;2023-02-12T08:34:58;4.90;99.90
33247;DHT22;19606;50.108;19.804;2023-02-12T08:37:23;4.80;99.90
33247;DHT22;19606;50.108;19.804;2023-02-12T08:39:49;4.70;99.90
33247;DHT22;19606;50.108;19.804;2023-02-12T08:42:15;4.70;1.00
33247;DHT22;19606;50.108;19.804;2023-02-12T08:44:41;3.60;1.00
33247;DHT22;19606;50.108;19.804;2023-02-12T08:47:07;3.90;1.00
33247;DHT22;19606;50.108;19.804;2023-02-12T08:49:37;4.90;1.00
33247;DHT22;19606;50.108;19.804;2023-02-12T08:52:03;5.60;98.60
33247;DHT22;19606;50.108;19.804;2023-02-12T08:54:29;5.00;99.90
33247;DHT22;19606;50.108;19.804;2023-02-12T08:57:00;5.50;1.00
33247;DHT22;19606;50.108;19.804;2023-02-12T08:59:26;5.10;99.90
33247;DHT22;19606;50.108;19.804;2023-02-12T09:01:53;4.30;1.00
33247;DHT22;19606;50.108;19.804;2023-02-12T09:04:24;4.70;99.90
33247;DHT22;19606;50.108;19.804;2023-02-12T09:06:50;4.10;99.90
33247;DHT22;19606;50.108;19.804;2023-02-12T09:09:16;4.60;1.00
33247;DHT22;19606;50.108;19.804;2023-02-12T09:11:42;3.70;1.00
33247;DHT22;19606;50.108;19.804;2023-02-12T09:14:12;4.70;99.90
33247;DHT22;19606;50.108;19.804;2023-02-12T09:16:38;5.50;1.00
33247;DHT22;19606;50.108;19.804;2023-02-12T09:19:05;5.20;99.90
33247;DHT22;19606;50.108;19.804;2023-02-12T09:21:31;5.80;99.90
33247;DHT22;19606;50.108;19.804;2023-02-12T09:23:57;6.00;1.00
33247;DHT22;19606;50.108;19.804;2023-02-12T09:26:23;5.70;1.00
33247;DHT22;19606;50.108;19.804;2023-02-12T09:28:53;5.20;1.00
33247;DHT22;19606;50.108;19.804;2023-02-12T09:31:27;4.80;1.00
33247;DHT22;19606;50.108;19.804;2023-02-12T09:34:02;5.20;1.00
33247;DHT22;19606;50.108;19.804;2023-02-12T09:36:28;4.20;99.90
33247;DHT22;19606;50.108;19.804;2023-02-12T09:38:54;4.10;99.90
33247;DHT22;19606;50.108;19.804;2023-02-12T09:44:37;4.10;1.00
33247;DHT22;19606;50.108;19.804;2023-02-12T09:52:28;4.60;99.90
33247;DHT22;19606;50.108;19.804;2023-02-12T09:54:54;4.10;1.00
33247;DHT22;19606;50.108;19.804;2023-02-12T10:00:31;4.70;99.90
33247;DHT22;19606;50.108;19.804;2023-02-12T10:02:51;3.80;99.90
33247;DHT22;19606;50.108;19.804;2023-02-12T10:05:37;3.80;1.00
33247;DHT22;19606;50.108;19.804;2023-02-12T10:08:25;3.90;99.90
33247;DHT22;19606;50.108;19.804;2023-02-12T10:16:41;4.10;99.90
33247;DHT22;19606;50.108;19.804;2023-02-12T10:19:21;4.90;1.00
33247;DHT22;19606;50.108;19.804;2023-02-12T10:22:02;5.40;99.90
33247;DHT22;19606;50.108;19.804;2023-02-12T10:24:51;5.10;1.00
33247;DHT22;19606;50.108;19.804;2023-02-12T10:27:40;5.10;1.00
33247;DHT22;19606;50.108;19.804;2023-02-12T10:33:51;6.20;1.00
33247;DHT22;19606;50.108;19.804;2023-02-12T10:36:08;6.50;1.00
33247;DHT22;19606;50.108;19.804;2023-02-12T10:38:41;7.50;1.00
33247;DHT22;19606;50.108;19.804;2023-02-12T10:41:14;8.40;29.30
33247;DHT22;19606;50.108;19.804;2023-02-12T10:43:40;7.80;99.90
33247;DHT22;19606;50.108;19.804;2023-02-12T10:46:13;7.60;1.00
33247;DHT22;19606;50.108;19.804;2023-02-12T10:48:42;8.10;99.90
33247;DHT22;19606;50.108;19.804;2023-02-12T10:51:44;9.40;1.00
33247;DHT22;19606;50.108;19.804;2023-02-12T10:54:40;10.70;99.90
33247;DHT22;19606;50.108;19.804;2023-02-12T10:57:39;9.50;99.90
33247;DHT22;19606;50.108;19.804;2023-02-12T11:05:29;7.60;99.90
33247;DHT22;19606;50.108;19.804;2023-02-12T11:07:55;7.70;99.90
33247;DHT22;19606;50.108;19.804;2023-02-12T11:10:40;9.00;1.00
33247;DHT22;19606;50.108;19.804;2023-02-12T11:13:21;9.40;99.90
33247;DHT22;19606;50.108;19.804;2023-02-12T11:15:48;9.80;99.90
33247;DHT22;19606;50.108;19.804;2023-02-12T11:18:26;9.80;99.90
33247;DHT22;19606;50.108;19.804;2023-02-12T11:23:28;10.10;99.90
33247;DHT22;19606;50.108;19.804;2023-02-12T11:28:30;11.30;99.90
33247;DHT22;19606;50.108;19.804;2023-02-12T11:31:00;12.50;99.90
33247;DHT22;19606;50.108;19.804;2023-02-12T11:36:10;8.80;99.90
33247;DHT22;19606;50.108;19.804;2023-02-12T11:38:56;9.10;99.90
33247;DHT22;19606;50.108;19.804;2023-02-12T11:41:35;9.90;99.90
33247;DHT22;19606;50.108;19.804;2023-02-12T11:44:10;9.40;99.90
33247;DHT22;19606;50.108;19.804;2023-02-12T11:46:37;8.00;99.90
33247;DHT22;19606;50.108;19.804;2023-02-12T11:49:04;8.60;99.90
33247;DHT22;19606;50.108;19.804;2023-02-12T11:51:31;9.10;99.90
33247;DHT22;19606;50.108;19.804;2023-02-12T11:53:59;10.50;99.90
33247;DHT22;19606;50.108;19.804;2023-02-12T11:56:43;10.50;99.90
33247;DHT22;19606;50.108;19.804;2023-02-12T11:59:39;9.00;99.90
33247;DHT22;19606;50.108;19.804;2023-02-12T12:02:43;8.00;99.90
33247;DHT22;19606;50.108;19.804;2023-02-12T12:05:12;8.30;99.90
33247;DHT22;19606;50.108;19.804;2023-02-12T12:07:43;11.30;99.90
33247;DHT22;19606;50.108;19.804;2023-02-12T12:12:49;12.70;99.90
33247;DHT22;19606;50.108;19.804;2023-02-12T12:18:21;11.50;99.90
33247;DHT22;19606;50.108;19.804;2023-02-12T12:21:26;12.40;99.90
33247;DHT22;19606;50.108;19.804;2023-02-12T12:26:31;13.90;99.90
33247;DHT22;19606;50.108;19.804;2023-02-12T12:29:25;13.70;99.90
33247;DHT22;19606;50.108;19.804;2023-02-12T12:31:58;13.30;99.90
33247;DHT22;19606;50.108;19.804;2023-02-12T12:34:26;14.30;99.90
33247;DHT22;19606;50.108;19.804;2023-02-12T12:37:21;13.90;99.90
33247;DHT22;19606;50.108;19.804;2023-02-12T12:51:04;13.50;99.90
33247;DHT22;19606;50.108;19.804;2023-02-12T13:10:35;14.80;99.90
33247;DHT22;19606;50.108;19.804;2023-02-12T13:18:59;15.50;99.90
33247;DHT22;19606;50.108;19.804;2023-02-12T13:26:49;14.20;99.90
33247;DHT22;19606;50.108;19.804;2023-02-12T13:32:22;14.70;99.90
33247;DHT22;19606;50.108;19.804;2023-02-12T13:34:50;14.40;99.90
33247;DHT22;19606;50.108;19.804;2023-02-12T13:37:19;13.50;99.90
33247;DHT22;19606;50.108;19.804;2023-02-12T13:39:48;12.20;99.90
33247;DHT22;19606;50.108;19.804;2023-02-12T13:42:41;13.30;99.90
33247;DHT22;19606;50.108;19.804;2023-02-12T13:50:45;12.30;99.90
33247;DHT22;19606;50.108;19.804;2023-02-12T13:53:29;11.80;99.90
33247;DHT22;19606;50.108;19.804;2023-02-12T13:57:00;12.70;99.90
33247;DHT22;19606;50.108;19.804;2023-02-12T13:59:00;13.00;99.90
33247;DHT22;19606;50.108;19.804;2023-02-12T14:01:43;11.30;99.90
33247;DHT22;19606;50.108;19.804;2023-02-12T14:07:03;10.10;99.90
33247;DHT22;19606;50.108;19.804;2023-02-12T14:12:01;9.80;99.90
33247;DHT22;19606;50.108;19.804;2023-02-12T14:14:33;8.80;99.90
33247;DHT22;19606;50.108;19.804;2023-02-12T14:19:56;7.50;99.90
33247;DHT22;19606;50.108;19.804;2023-02-12T14:24:56;6.70;99.90
33247;DHT22;19606;50.108;19.804;2023-02-12T14:28:18;6.10;99.90
33247;DHT22;19606;50.108;19.804;2023-02-12T14:33:22;5.80;99.90
33247;DHT22;19606;50.108;19.804;2023-02-12T14:36:21;5.80;96.30
33247;DHT22;19606;50.108;19.804;2023-02-12T14:41:45;5.60;43.60
33247;DHT22;19606;50.108;19.804;2023-02-12T14:47:01;5.50;99.90
33247;DHT22;19606;50.108;19.804;2023-02-12T14:49:33;5.50;99.90
33247;DHT22;19606;50.108;19.804;2023-02-12T14:54:48;5.50;99.90
33247;DHT22;19606;50.108;19.804;2023-02-12T14:57:25;5.60;1.00
33247;DHT22;19606;50.108;19.804;2023-02-12T15:05:30;4.80;1.00
33247;DHT22;19606;50.108;19.804;2023-02-12T15:07:59;4.70;1.00
33247;DHT22;19606;50.108;19.804;2023-02-12T15:10:35;4.80;99.90
33247;DHT22;19606;50.108;19.804;2023-02-12T15:16:07;4.50;1.00
33247;DHT22;19606;50.108;19.804;2023-02-12T15:21:25;4.40;1.00
33247;DHT22;19606;50.108;19.804;2023-02-12T15:26:43;4.30;1.00
33247;DHT22;19606;50.108;19.804;2023-02-12T15:29:21;4.20;1.00
33247;DHT22;19606;50.108;19.804;2023-02-12T15:31:54;4.10;1.00
33247;DHT22;19606;50.108;19.804;2023-02-12T15:34:23;4.00;1.00
33247;DHT22;19606;50.108;19.804;2023-02-12T15:36:49;4.90;1.00
33247;DHT22;19606;50.108;19.804;2023-02-12T15:39:20;4.20;1.00
33247;DHT22;19606;50.108;19.804;2023-02-12T15:41:46;4.10;99.90
33247;DHT22;19606;50.108;19.804;2023-02-12T15:44:32;3.60;1.00
33247;DHT22;19606;50.108;19.804;2023-02-12T15:47:12;3.30;1.00
33247;DHT22;19606;50.108;19.804;2023-02-12T15:49:39;3.10;1.00
33247;DHT22;19606;50.108;19.804;2023-02-12T15:52:13;3.40;1.00
33247;DHT22;19606;50.108;19.804;2023-02-12T15:54:40;3.40;1.00
33247;DHT22;19606;50.108;19.804;2023-02-12T15:57:13;2.90;1.00
33247;DHT22;19606;50.108;19.804;2023-02-12T15:59:47;2.60;1.00
33247;DHT22;19606;50.108;19.804;2023-02-12T16:02:24;2.70;1.00
33247;DHT22;19606;50.108;19.804;2023-02-12T16:04:52;2.40;1.00
33247;DHT22;19606;50.108;19.804;2023-02-12T16:07:19;2.30;1.00
33247;DHT22;19606;50.108;19.804;2023-02-12T16:09:45;2.50;1.00
33247;DHT22;19606;50.108;19.804;2023-02-12T16:12:14;2.00;1.00
33247;DHT22;19606;50.108;19.804;2023-02-12T16:14:46;3.40;1.00
33247;DHT22;19606;50.108;19.804;2023-02-12T16:22:40;2.00;1.00
33247;DHT22;19606;50.108;19.804;2023-02-12T16:25:24;1.90;1.00
33247;DHT22;19606;50.108;19.804;2023-02-12T16:27:56;2.00;1.00
33247;DHT22;19606;50.108;19.804;2023-02-12T16:30:38;1.70;1.00
33247;DHT22;19606;50.108;19.804;2023-02-12T16:33:30;1.50;6.30
33247;DHT22;19606;50.108;19.804;2023-02-12T16:36:00;1.30;12.80
33247;DHT22;19606;50.108;19.804;2023-02-12T16:38:43;1.20;67.90
33247;DHT22;19606;50.108;19.804;2023-02-12T16:46:25;2.10;48.50
33247;DHT22;19606;50.108;19.804;2023-02-12T16:48:52;1.80;28.50
33247;DHT22;19606;50.108;19.804;2023-02-12T16:51:30;1.80;13.70
33247;DHT22;19606;50.108;19.804;2023-02-12T16:54:01;3.00;33.90
33247;DHT22;19606;50.108;19.804;2023-02-12T16:56:29;1.30;50.30
33247;DHT22;19606;50.108;19.804;2023-02-12T16:58:57;1.60;67.30
33247;DHT22;19606;50.108;19.804;2023-02-12T17:01:29;1.80;61.30
33247;DHT22;19606;50.108;19.804;2023-02-12T17:03:58;1.40;96.10
33247;DHT22;19606;50.108;19.804;2023-02-12T17:06:27;1.00;99.90
33247;DHT22;19606;50.108;19.804;2023-02-12T17:08:53;0.80;99.90
33247;DHT22;19606;50.108;19.804;2023-02-12T17:11:19;1.20;99.90
33247;DHT22;19606;50.108;19.804;2023-02-12T17:13:47;1.00;99.90
33247;DHT22;19606;50.108;19.804;2023-02-12T17:16:14;0.60;99.90
33247;DHT22;19606;50.108;19.804;2023-02-12T17:18:40;0.80;99.90
33247;DHT22;19606;50.108;19.804;2023-02-12T17:21:32;1.00;99.90
33247;DHT22;19606;50.108;19.804;2023-02-12T17:24:03;0.60;99.90
33247;DHT22;19606;50.108;19.804;2023-02-12T17:26:29;0.70;99.90
33247;DHT22;19606;50.108;19.804;2023-02-12T17:28:54;0.70;99.90
33247;DHT22;19606;50.108;19.804;2023-02-12T17:31:32;0.60;99.90
33247;DHT22;19606;50.108;19.804;2023-02-12T17:33:59;0.40;99.90
33247;DHT22;19606;50.108;19.804;2023-02-12T17:36:24;0.80;99.90
33247;DHT22;19606;50.108;19.804;2023-02-12T17:38:50;0.50;99.90
33247;DHT22;19606;50.108;19.804;2023-02-12T17:41:16;1.10;99.90
33247;DHT22;19606;50.108;19.804;2023-02-12T17:43:41;0.90;99.90
33247;DHT22;19606;50.108;19.804;2023-02-12T17:46:11;0.60;99.90
33247;DHT22;19606;50.108;19.804;2023-02-12T17:48:37;1.30;99.90
33247;DHT22;19606;50.108;19.804;2023-02-12T17:51:03;0.20;99.90
33247;DHT22;19606;50.108;19.804;2023-02-12T17:53:29;0.00;99.90
33247;DHT22;19606;50.108;19.804;2023-02-12T17:55:54;0.20;99.90
33247;DHT22;19606;50.108;19.804;2023-02-12T17:58:20;0.00;99.90
33247;DHT22;19606;50.108;19.804;2023-02-12T18:00:45;1.00;99.90
33247;DHT22;19606;50.108;19.804;2023-02-12T18:03:11;-0.10;99.90
33247;DHT22;19606;50.108;19.804;2023-02-12T18:05:41;0.10;99.90
33247;DHT22;19606;50.108;19.804;2023-02-12T18:08:08;0.20;99.90
33247;DHT22;19606;50.108;19.804;2023-02-12T18:10:42;0.00;99.90
33247;DHT22;19606;50.108;19.804;2023-02-12T18:13:08;0.00;99.90
33247;DHT22;19606;50.108;19.804;2023-02-12T18:15:34;0.10;99.90
33247;DHT22;19606;50.108;19.804;2023-02-12T18:18:00;-0.20;99.90
33247;DHT22;19606;50.108;19.804;2023-02-12T18:20:26;0.10;99.90
33247;DHT22;19606;50.108;19.804;2023-02-12T18:22:51;-0.40;99.90
33247;DHT22;19606;50.108;19.804;2023-02-12T18:25:17;0.00;99.90
33247;DHT22;19606;50.108;19.804;2023-02-12T18:27:44;-0.90;99.90
33247;DHT22;19606;50.108;19.804;2023-02-12T18:30:10;-1.00;99.90
33247;DHT22;19606;50.108;19.804;2023-02-12T18:32:36;-1.00;99.90
33247;DHT22;19606;50.108;19.804;2023-02-12T18:35:03;-0.90;99.90
33247;DHT22;19606;50.108;19.804;2023-02-12T18:37:32;-1.00;99.90
33247;DHT22;19606;50.108;19.804;2023-02-12T18:39:58;-0.70;99.90
33247;DHT22;19606;50.108;19.804;2023-02-12T18:42:25;-1.00;99.90
33247;DHT22;19606;50.108;19.804;2023-02-12T18:44:55;-1.00;99.90
33247;DHT22;19606;50.108;19.804;2023-02-12T18:47:24;-1.00;99.90
33247;DHT22;19606;50.108;19.804;2023-02-12T18:49:49;-1.10;99.90
33247;DHT22;19606;50.108;19.804;2023-02-12T18:52:18;-1.10;99.90
33247;DHT22;19606;50.108;19.804;2023-02-12T18:54:51;-1.00;99.90